• Join FlightAware (Why Join?)
  • Login
  • US Flag 
07:19AM EDT


 

Airport Tracker/Info


-or-


 

Live Flight TrackerFlight Track Log ✈ EJA370 ✈ 12-May-2013 ✈ KIAD - KRYY

Flight Track Log - Related Links

Times and Time Zones

All times are in EDT time to prevent confusion due to time zone crossing. See the EJA370 flight status page for this flight to view local times or setup timezone preferences in your user account.

Time Position Orientation Groundspeed Altitude Reporting Facility
EDT Latitude Longitude Course Direction KTS MPH feet Rate Location/Type
03:07PM 38.9333 -77.5000 237° Southwest 185 213 2,800  Level Potomac TRACON
03:08PM 38.9000 -77.5667 237° Southwest 238 274 3,600 2,040 Climbing Potomac TRACON
03:09PM 38.8667 -77.6333 237° Southwest 243 280 6,900 2,100 Climbing Potomac TRACON
03:10PM 38.8000 -77.6667 201° Southwest 253 291 7,800 1,800 Climbing Potomac TRACON
03:11PM 38.7167 -77.6833 189° South 264 304 10,600 2,580 Climbing Potomac TRACON
03:12PM 38.6950 -77.6850 183° South 274 315 11,700 3,120 Climbing Washington Center
03:13PM 38.6175 -77.7042 191° South 279 321 15,300 3,420 Climbing Washington Center
03:14PM 38.5358 -77.7256 192° South 285 328 18,600 2,880 Climbing Washington Center
03:15PM 38.4783 -77.7878 220° Southwest 279 321 21,100 2,820 Climbing Washington Center
03:16PM 38.4244 -77.8814 234° Southwest 278 320 24,300 2,400 Climbing Washington Center
03:17PM 38.3769 -77.9753 237° Southwest 295 339 26,000 1,080 Climbing Washington Center
03:18PM 38.3269 -78.0717 237° Southwest 319 367 26,500 480 Climbing Washington Center
03:19PM 38.2769 -78.1678 236° Southwest 326 375 27,000 1,380 Climbing Washington Center
03:20PM 38.2247 -78.2667 236° Southwest 331 381 29,300 2,520 Climbing Washington Center
03:21PM 38.1625 -78.3514 227° Southwest 336 387 32,100 2,400 Climbing Washington Center
03:22PM 38.0958 -78.4281 222° Southwest 330 380 34,200 1,740 Climbing Washington Center
03:23PM 38.0294 -78.5100 224° Southwest 330 380 35,600 2,880 Climbing Washington Center
03:24PM 37.9714 -78.5761 222° Southwest 325 374 40,000 1,140 Climbing Washington Center
03:25PM 37.9047 -78.6606 225° Southwest 330 380 38,000 -600 Descending Washington Center
03:26PM 37.8378 -78.7444 225° Southwest 336 387 38,900 960 Climbing Washington Center
03:27PM 37.7767 -78.8417 232° Southwest 349 402 40,000 540 Climbing Washington Center
03:28PM 37.7072 -78.9464 230° Southwest 357 411 40,000  Level Washington Center
03:29PM 37.6461 -79.0408 231° Southwest 357 411 40,000  Level Washington Center
03:30PM 37.5869 -79.1325 231° Southwest 357 411 40,000  Level Washington Center
03:31PM 37.5322 -79.2189 231° Southwest 357 411 40,000  Level Washington Center
03:32PM 37.4667 -79.3206 231° Southwest 357 411 40,000  Level Washington Center
03:33PM 37.4036 -79.3986 225° Southwest 357 411 40,000  Level Washington Center
03:34PM 37.3444 -79.4922 232° Southwest 357 411 40,000  Level Washington Center
03:35PM 37.2892 -79.5833 233° Southwest 345 397 40,000  Level Washington Center
03:36PM 37.2278 -79.6742 230° Southwest 345 397 40,000  Level Washington Center
03:38PM 37.0850 -79.8889 230° Southwest 378 435 40,000  Level Atlanta Center
03:39PM 37.0214 -79.9833 230° Southwest 365 420 40,000  Level Atlanta Center
03:40PM 36.9558 -80.0803 230° Southwest 360 414 40,000  Level Atlanta Center
03:41PM 36.8942 -80.1717 230° Southwest 360 414 40,000  Level Atlanta Center
03:42PM 36.8244 -80.2761 230° Southwest 360 414 40,000  Level Atlanta Center
03:43PM 36.7603 -80.3672 229° Southwest 357 411 40,000  Level Atlanta Center
03:44PM 36.7008 -80.4658 233° Southwest 362 417 40,000  Level Atlanta Center
03:45PM 36.6411 -80.5642 233° Southwest 362 417 40,000  Level Atlanta Center
03:46PM 36.5853 -80.6597 234° Southwest 355 409 40,000  Level Atlanta Center
03:47PM 36.5294 -80.7575 235° Southwest 350 403 40,000  Level Atlanta Center
03:48PM 36.4694 -80.8531 232° Southwest 350 403 40,000  Level Atlanta Center
03:49PM 36.4156 -80.9403 233° Southwest 350 403 40,000  Level Atlanta Center
03:50PM 36.3594 -81.0378 234° Southwest 350 403 40,000  Level Atlanta Center
03:51PM 36.3014 -81.1328 233° Southwest 350 403 40,000  Level Atlanta Center
03:52PM 36.2408 -81.2303 232° Southwest 350 403 40,000  Level Atlanta Center
03:53PM 36.1825 -81.3247 233° Southwest 350 403 40,000  Level Atlanta Center
03:54PM 36.1242 -81.4219 233° Southwest 350 403 40,000  Level Atlanta Center
03:55PM 36.0658 -81.5161 233° Southwest 350 403 40,000  Level Atlanta Center
03:56PM 36.0072 -81.6131 233° Southwest 350 403 40,000  Level Atlanta Center
03:57PM 35.9486 -81.7072 232° Southwest 350 403 40,000  Level Atlanta Center
03:58PM 35.8961 -81.8061 237° Southwest 350 403 40,000 -60 Level Atlanta Center
03:59PM 35.8503 -81.9200 244° Southwest 345 397 39,900 -600 Descending Atlanta Center
04:00PM 35.8061 -82.0261 243° Southwest 345 397 38,900 -1,200 Descending Atlanta Center
04:01PM 35.7619 -82.1297 242° Southwest 345 397 37,600 -960 Descending Atlanta Center
04:02PM 35.7194 -82.2278 242° Southwest 339 390 37,000 -600 Descending Atlanta Center
04:03PM 35.6769 -82.3183 240° Southwest 321 369 36,400 -840 Descending Atlanta Center
04:04PM 35.6156 -82.4064 229° Southwest 333 383 35,400 -720 Descending Atlanta Center
04:05PM 35.5522 -82.4969 229° Southwest 338 389 35,000 -360 Descending Atlanta Center
04:06PM 35.4967 -82.5744 229° Southwest 343 395 34,700 -1,200 Descending Atlanta Center
04:07PM 35.4311 -82.6650 228° Southwest 349 402 32,700 -2,040 Descending Atlanta Center
04:08PM 35.3631 -82.7578 228° Southwest 354 407 30,700 -2,040 Descending Atlanta Center
04:09PM 35.2933 -82.8581 230° Southwest 369 425 28,700 -2,100 Descending Atlanta Center
04:10PM 35.2272 -82.9506 229° Southwest 369 425 26,600 -2,040 Descending Atlanta Center
04:11PM 35.1633 -83.0378 228° Southwest 363 418 24,700 -1,980 Descending Atlanta Center
04:12PM 35.0994 -83.1325 231° Southwest 357 411 22,700 -2,040 Descending Atlanta Center
04:13PM 35.0353 -83.2169 227° Southwest 357 411 20,700 -2,040 Descending Atlanta Center
04:14PM 34.9711 -83.3061 229° Southwest 357 411 18,700 -1,980 Descending Atlanta Center
04:15PM 34.9111 -83.3903 229° Southwest 350 403 16,800 -1,980 Descending Atlanta Center
04:16PM 34.8469 -83.4794 229° Southwest 344 396 14,800 -2,100 Descending Atlanta Center
04:17PM 34.7847 -83.5633 228° Southwest 327 376 12,600 -1,920 Descending Atlanta Center
04:18PM 34.7244 -83.6469 229° Southwest 327 376 11,000 -840 Descending Atlanta Center
04:19PM 34.6578 -83.7181 221° Southwest 322 371 11,000  Level Atlanta Center
04:20PM 34.5914 -83.7889 221° Southwest 322 371 11,000  Level Atlanta Center
04:21PM 34.5206 -83.8597 219° Southwest 322 371 11,000  Level Atlanta Center
04:22PM 34.4536 -83.9281 220° Southwest 329 379 11,000 -600 Level Atlanta Center
04:23PM 34.3953 -83.9908 222° Southwest 306 352 9,800 -1,320 Descending Atlanta Center
04:24PM 34.3411 -84.0489 222° Southwest 273 314 8,400 -900 Descending Atlanta Center
04:25PM 34.2847 -84.0892 211° Southwest 266 306 8,000 -1,020 Descending Atlanta Center
04:26PM 34.2264 -84.1367 214° Southwest 266 306 6,400 -1,320 Descending Atlanta Center
04:27PM 34.1908 -84.2069 239° Southwest 247 284 5,400 -1,020 Descending Atlanta Center
04:28PM 34.1592 -84.2772 241° Southwest 247 284 4,400 -720 Descending Atlanta Center
04:29PM 34.1278 -84.3425 240° Southwest 242 278 4,000 -300 Descending Atlanta Center
04:29PM 34.1000 -84.3667 216° Southwest 214 246 4,000 -120 Level Atlanta TRACON
04:30PM 34.0881 -84.3975 245° Southwest 228 262 3,900 -840 Descending Atlanta Center
04:31PM 34.0461 -84.4475 225° Southwest 215 247 2,700 -720 Descending Atlanta Center
04:32PM 34.0189 -84.4950 235° Southwest 196 226 2,500 -480 Descending Atlanta Center
04:33PM 34.0167 -84.5375 266° West 140 161 1,800 -600 Descending Atlanta Center
04:34PM 34.0144 -84.5725 266° West 119 137 1,300 -540 Descending Atlanta Center
04:36PM 34.0000 -84.5833 248° West  Level FlightAware Approximate
04:43PM 34.0132 -84.5971 248° West  Level Estimated